Time;durP1;ratioP1;P1;durP2;ratioP2;P2;SDS_P1;SDS_P2;PMS_P1;PMS_P2;Temp;Humidity;BMP_temperature;BMP_pressure;BME280_temperature;BME280_humidity;BME280_pressure;Samples;Min_cycle;Max_cycle;Signal;HPM_P1;HPM_P2
2023/06/21 00:00:33;;;;;;;27.73;24.90;;;;;;;;;;5074745;28;20207;-86
2023/06/21 00:02:59;;;;;;;25.77;23.40;;;;;;;;;;5061076;28;20210;-85
2023/06/21 00:05:25;;;;;;;26.90;24.27;;;;;;;;;;5056876;28;20267;-85
2023/06/21 00:07:53;;;;;;;25.37;23.00;;;;;;;;;;5056093;28;20186;-85
2023/06/21 00:10:23;;;;;;;26.87;24.17;;;;;;;;;;5070684;28;20175;-85
2023/06/21 00:12:50;;;;;;;24.43;22.13;;;;;;;;;;5055057;28;20187;-85
2023/06/21 00:15:16;;;;;;;22.97;20.60;;;;;;;;;;5066859;28;20186;-85
2023/06/21 00:17:42;;;;;;;21.73;19.73;;;;;;;;;;5059942;28;20214;-85
2023/06/21 00:20:10;;;;;;;21.47;19.30;;;;;;;;;;5058323;28;20192;-85
2023/06/21 00:22:36;;;;;;;21.63;19.50;;;;;;;;;;5075233;28;20241;-85
2023/06/21 00:25:02;;;;;;;20.67;18.40;;;;;;;;;;5075090;28;20238;-86
2023/06/21 00:27:28;;;;;;;20.03;18.13;;;;;;;;;;5058371;28;20187;-86
2023/06/21 00:29:54;;;;;;;20.23;18.33;;;;;;;;;;5075151;28;20261;-85
2023/06/21 00:32:20;;;;;;;19.87;17.83;;;;;;;;;;5075197;28;20175;-86
2023/06/21 00:34:47;;;;;;;19.27;17.47;;;;;;;;;;5075289;28;20256;-85
2023/06/21 00:37:16;;;;;;;18.97;17.07;;;;;;;;;;5066202;28;20230;-86
2023/06/21 00:39:42;;;;;;;18.53;16.63;;;;;;;;;;5054721;28;20180;-85
2023/06/21 00:42:09;;;;;;;16.93;15.33;;;;;;;;;;5055046;28;20266;-85
2023/06/21 00:44:38;;;;;;;15.70;14.20;;;;;;;;;;5054036;28;20219;-86
2023/06/21 00:47:04;;;;;;;15.27;13.87;;;;;;;;;;5054822;28;20180;-85
2023/06/21 00:49:30;;;;;;;13.83;12.47;;;;;;;;;;5054754;28;20184;-86
2023/06/21 00:51:57;;;;;;;14.63;12.43;;;;;;;;;;5054484;28;20188;-86
2023/06/21 00:54:26;;;;;;;15.13;13.63;;;;;;;;;;5055219;28;20190;-86
2023/06/21 00:56:53;;;;;;;14.57;13.03;;;;;;;;;;5054587;28;20218;-86
2023/06/21 00:59:20;;;;;;;14.27;12.90;;;;;;;;;;5054735;28;20185;-86
2023/06/21 01:01:46;;;;;;;14.17;12.87;;;;;;;;;;5054474;28;20199;-86
2023/06/21 01:04:13;;;;;;;13.97;12.40;;;;;;;;;;5054426;28;20200;-86
2023/06/21 01:06:48;;;;;;;13.77;12.47;;;;;;;;;;5068826;28;20179;-86
2023/06/21 01:09:18;;;;;;;14.47;12.97;;;;;;;;;;5090719;28;20285;-86
2023/06/21 01:11:55;;;;;;;13.57;12.23;;;;;;;;;;5072151;28;20262;-86
2023/06/21 01:14:37;;;;;;;14.07;12.67;;;;;;;;;;5073524;28;20187;-86
2023/06/21 01:17:04;;;;;;;14.07;12.83;;;;;;;;;;5073562;28;20340;-86
2023/06/21 01:19:36;;;;;;;14.50;13.03;;;;;;;;;;5056944;28;20247;-86
2023/06/21 01:22:09;;;;;;;15.13;13.70;;;;;;;;;;5064276;28;20258;-86
2023/06/21 01:25:06;;;;;;;14.27;12.87;;;;;;;;;;5073119;28;20368;-86
2023/06/21 01:27:52;;;;;;;15.20;13.60;;;;;;;;;;5066762;28;20219;-86
2023/06/21 01:30:20;;;;;;;15.17;13.77;;;;;;;;;;5073392;28;20179;-86
2023/06/21 01:32:47;;;;;;;16.27;14.77;;;;;;;;;;5076479;28;20238;-86
2023/06/21 01:35:13;;;;;;;15.67;14.17;;;;;;;;;;5058809;28;20184;-86
2023/06/21 01:37:42;;;;;;;16.53;14.33;;;;;;;;;;5054909;28;20184;-85
2023/06/21 01:40:11;;;;;;;18.17;16.33;;;;;;;;;;5053488;28;20282;-85
2023/06/21 01:42:37;;;;;;;17.07;15.47;;;;;;;;;;5054093;28;20192;-85
2023/06/21 01:45:04;;;;;;;18.60;16.70;;;;;;;;;;5063656;28;20191;-86
2023/06/21 01:47:30;;;;;;;17.47;15.87;;;;;;;;;;5058119;28;20192;-86
2023/06/21 01:49:56;;;;;;;19.37;17.37;;;;;;;;;;5065494;28;20183;-86
2023/06/21 01:52:24;;;;;;;20.67;18.73;;;;;;;;;;5063385;28;20211;-85
2023/06/21 01:54:50;;;;;;;19.70;17.93;;;;;;;;;;5076081;28;20278;-86
2023/06/21 01:57:18;;;;;;;19.70;17.80;;;;;;;;;;5081110;28;20231;-86
2023/06/21 01:59:44;;;;;;;21.73;19.53;;;;;;;;;;5080052;28;20182;-87
2023/06/21 02:02:10;;;;;;;21.33;19.27;;;;;;;;;;5078556;28;20182;-87
2023/06/21 02:04:38;;;;;;;22.17;20.07;;;;;;;;;;5082874;28;20213;-87
2023/06/21 02:07:06;;;;;;;23.30;21.00;;;;;;;;;;5080609;28;20212;-86
2023/06/21 02:09:32;;;;;;;23.80;21.33;;;;;;;;;;5080907;28;20182;-86
2023/06/21 02:12:00;;;;;;;24.27;21.70;;;;;;;;;;5078956;28;20191;-86
2023/06/21 02:14:26;;;;;;;24.80;22.37;;;;;;;;;;5073245;28;20187;-86
2023/06/21 02:16:52;;;;;;;25.80;23.37;;;;;;;;;;5073135;28;20175;-86
2023/06/21 02:19:18;;;;;;;26.20;23.60;;;;;;;;;;5063229;28;20691;-86
2023/06/21 02:21:44;;;;;;;26.07;23.57;;;;;;;;;;5052869;28;20191;-86
2023/06/21 02:24:10;;;;;;;26.33;23.73;;;;;;;;;;5052841;28;20207;-86
2023/06/21 02:26:38;;;;;;;25.27;22.73;;;;;;;;;;5072039;28;20230;-86
2023/06/21 02:29:04;;;;;;;25.97;23.43;;;;;;;;;;5072982;28;20179;-86
2023/06/21 02:31:32;;;;;;;27.60;24.80;;;;;;;;;;5056097;28;20183;-87
2023/06/21 02:33:58;;;;;;;27.40;24.90;;;;;;;;;;5072820;28;20179;-86
2023/06/21 02:36:24;;;;;;;26.90;24.23;;;;;;;;;;5052721;28;20222;-86
2023/06/21 02:38:50;;;;;;;27.10;24.50;;;;;;;;;;5069371;28;20183;-86
2023/06/21 02:41:16;;;;;;;27.07;24.57;;;;;;;;;;5053183;28;20214;-86
2023/06/21 02:43:42;;;;;;;29.07;26.23;;;;;;;;;;5052733;28;20310;-86
2023/06/21 02:46:08;;;;;;;28.10;25.50;;;;;;;;;;5052747;28;20215;-86
2023/06/21 02:48:34;;;;;;;28.40;25.80;;;;;;;;;;5052574;28;20176;-86
2023/06/21 02:51:00;;;;;;;30.90;27.87;;;;;;;;;;5052718;28;20243;-86
2023/06/21 02:53:26;;;;;;;30.63;27.73;;;;;;;;;;5077034;28;20199;-86
2023/06/21 02:55:52;;;;;;;33.10;29.77;;;;;;;;;;5052768;28;20237;-86
2023/06/21 02:58:18;;;;;;;33.00;29.83;;;;;;;;;;5048853;28;20278;-86
2023/06/21 03:00:47;;;;;;;33.27;30.07;;;;;;;;;;5072400;28;20203;-86
2023/06/21 03:03:13;;;;;;;32.83;29.53;;;;;;;;;;5052578;28;20211;-86
2023/06/21 03:05:39;;;;;;;34.10;30.67;;;;;;;;;;5052490;28;20230;-86
2023/06/21 03:08:07;;;;;;;31.90;28.77;;;;;;;;;;5055264;28;20256;-86
2023/06/21 03:10:33;;;;;;;35.17;31.57;;;;;;;;;;5073531;28;20183;-86
2023/06/21 03:12:59;;;;;;;36.13;32.30;;;;;;;;;;5075923;28;20187;-86
2023/06/21 03:15:25;;;;;;;36.17;32.50;;;;;;;;;;5075990;28;20187;-86
2023/06/21 03:17:51;;;;;;;39.30;33.87;;;;;;;;;;5075725;28;20195;-87
2023/06/21 03:20:18;;;;;;;37.33;32.53;;;;;;;;;;5058392;28;20188;-86
2023/06/21 03:22:45;;;;;;;37.47;33.47;;;;;;;;;;5058184;28;20245;-86
2023/06/21 03:25:20;;;;;;;36.70;32.83;;;;;;;;;;5075828;28;20227;-86
2023/06/21 03:27:47;;;;;;;37.47;33.50;;;;;;;;;;5064459;28;20230;-86
2023/06/21 03:30:16;;;;;;;36.50;32.80;;;;;;;;;;5046319;28;20183;-86
2023/06/21 03:32:46;;;;;;;35.70;32.20;;;;;;;;;;5060385;28;20186;-86
2023/06/21 03:35:14;;;;;;;37.00;33.13;;;;;;;;;;5072353;28;20175;-87
2023/06/21 03:37:40;;;;;;;36.73;32.77;;;;;;;;;;5071790;28;20211;-86
2023/06/21 03:40:08;;;;;;;36.97;33.07;;;;;;;;;;5064805;28;20198;-86
2023/06/21 03:42:34;;;;;;;37.20;33.47;;;;;;;;;;5076012;28;20183;-86
2023/06/21 03:45:00;;;;;;;36.13;32.37;;;;;;;;;;5063049;28;20207;-86
2023/06/21 03:47:26;;;;;;;34.73;31.10;;;;;;;;;;5055880;28;20214;-86
2023/06/21 03:49:57;;;;;;;35.23;31.53;;;;;;;;;;5039074;28;20176;-86
2023/06/21 03:52:23;;;;;;;34.17;30.70;;;;;;;;;;5055858;28;20225;-86
2023/06/21 03:54:49;;;;;;;33.23;29.97;;;;;;;;;;5055975;28;20195;-86
2023/06/21 03:57:15;;;;;;;33.73;30.23;;;;;;;;;;5067609;28;20179;-85
2023/06/21 03:59:41;;;;;;;33.07;29.77;;;;;;;;;;5075283;28;20187;-86
2023/06/21 04:02:07;;;;;;;33.57;29.67;;;;;;;;;;5058440;28;20196;-86
2023/06/21 04:04:33;;;;;;;35.03;31.50;;;;;;;;;;5055481;28;20245;-86
2023/06/21 04:06:59;;;;;;;34.50;30.93;;;;;;;;;;5055586;28;20176;-86
2023/06/21 04:09:26;;;;;;;34.53;30.93;;;;;;;;;;5063424;28;20247;-86
2023/06/21 04:11:52;;;;;;;33.60;30.00;;;;;;;;;;5055366;28;20172;-86
2023/06/21 04:14:18;;;;;;;35.80;32.13;;;;;;;;;;5055237;28;20183;-86
2023/06/21 04:16:44;;;;;;;36.27;32.37;;;;;;;;;;5055615;28;20202;-86
2023/06/21 04:19:11;;;;;;;38.57;33.83;;;;;;;;;;5071620;28;20190;-86
2023/06/21 04:21:37;;;;;;;38.67;34.57;;;;;;;;;;5075376;28;20179;-86
2023/06/21 04:24:03;;;;;;;36.47;32.53;;;;;;;;;;5075267;28;20246;-87
2023/06/21 04:26:29;;;;;;;36.37;32.67;;;;;;;;;;5075080;28;20222;-86
2023/06/21 04:28:55;;;;;;;38.17;34.07;;;;;;;;;;5075113;28;20171;-85
2023/06/21 04:31:21;;;;;;;40.33;33.73;;;;;;;;;;5085072;28;20182;-85
2023/06/21 04:33:48;;;;;;;38.57;34.37;;;;;;;;;;5082607;28;20213;-85
2023/06/21 04:36:17;;;;;;;41.30;36.80;;;;;;;;;;5074586;28;20191;-85
2023/06/21 04:38:43;;;;;;;23.00;20.90;;;;;;;;;;5074530;28;20472;-85
2023/06/21 04:41:09;;;;;;;39.40;35.20;;;;;;;;;;5074854;28;20187;-85
2023/06/21 04:43:36;;;;;;;39.17;35.10;;;;;;;;;;5075057;28;20199;-85
2023/06/21 04:46:03;;;;;;;42.20;37.60;;;;;;;;;;5074767;28;20182;-86
2023/06/21 04:48:29;;;;;;;42.17;37.70;;;;;;;;;;5074252;28;20171;-86
2023/06/21 04:50:55;;;;;;;40.87;36.57;;;;;;;;;;5074164;28;20207;-85
2023/06/21 04:53:28;;;;;;;47.50;40.77;;;;;;;;;;5058552;28;20183;-86
2023/06/21 04:55:54;;;;;;;46.80;40.33;;;;;;;;;;5074383;28;20179;-85
2023/06/21 04:58:20;;;;;;;44.87;39.57;;;;;;;;;;5072401;28;20191;-85
2023/06/21 05:00:46;;;;;;;46.97;41.83;;;;;;;;;;5070624;28;20203;-85
2023/06/21 05:03:15;;;;;;;46.73;40.47;;;;;;;;;;5072895;28;20206;-85
2023/06/21 05:05:41;;;;;;;45.13;39.00;;;;;;;;;;5073782;28;20190;-85
2023/06/21 05:08:07;;;;;;;44.63;38.90;;;;;;;;;;5066676;28;20188;-85
2023/06/21 05:10:33;;;;;;;44.47;39.47;;;;;;;;;;5069554;28;20202;-85
2023/06/21 05:12:59;;;;;;;44.73;39.50;;;;;;;;;;5074629;28;20182;-85
2023/06/21 05:15:27;;;;;;;47.97;41.07;;;;;;;;;;5056622;28;20200;-86
2023/06/21 05:17:53;;;;;;;45.77;40.63;;;;;;;;;;5054210;28;20184;-85
2023/06/21 05:20:22;;;;;;;45.67;40.67;;;;;;;;;;5056094;28;20192;-85
2023/06/21 05:22:48;;;;;;;45.80;40.40;;;;;;;;;;5071451;28;20260;-86
2023/06/21 05:25:14;;;;;;;27.20;24.58;;;;;;;;;;5073108;28;20434;-86
2023/06/21 05:27:41;;;;;;;34.13;30.60;;;;;;;;;;5073087;28;20175;-85
2023/06/21 05:30:07;;;;;;;37.07;33.20;;;;;;;;;;5053621;28;20178;-86
2023/06/21 05:32:33;;;;;;;38.87;34.77;;;;;;;;;;5037235;28;20275;-83
2023/06/21 05:34:59;;;;;;;43.27;36.33;;;;;;;;;;5053710;28;20229;-82
2023/06/21 05:37:25;;;;;;;42.17;37.83;;;;;;;;;;5070199;28;20174;-83
2023/06/21 05:39:51;;;;;;;41.20;36.73;;;;;;;;;;5054327;28;20215;-83
2023/06/21 05:42:17;;;;;;;40.33;36.03;;;;;;;;;;5055237;28;20180;-83
2023/06/21 05:44:43;;;;;;;44.10;39.50;;;;;;;;;;5052270;28;20203;-83
2023/06/21 05:47:09;;;;;;;45.10;40.40;;;;;;;;;;5065886;28;20184;-83
2023/06/21 05:49:38;;;;;;;42.83;38.23;;;;;;;;;;5053818;28;20183;-83
2023/06/21 05:52:04;;;;;;;42.30;37.90;;;;;;;;;;5064470;28;20212;-83
2023/06/21 05:54:30;;;;;;;44.43;39.67;;;;;;;;;;5067822;28;20278;-83
2023/06/21 05:56:56;;;;;;;41.70;37.40;;;;;;;;;;5055478;28;20226;-83
2023/06/21 05:59:22;;;;;;;43.17;38.07;;;;;;;;;;5051364;28;20289;-83
2023/06/21 06:01:48;;;;;;;43.03;38.63;;;;;;;;;;5062455;28;20242;-83
2023/06/21 06:04:14;;;;;;;46.23;41.40;;;;;;;;;;5051310;28;20215;-83
2023/06/21 06:06:41;;;;;;;45.13;40.73;;;;;;;;;;5073450;28;20184;-83
2023/06/21 06:09:10;;;;;;;45.27;40.73;;;;;;;;;;5051144;28;20193;-83
2023/06/21 06:11:37;;;;;;;43.43;39.33;;;;;;;;;;5067174;28;20179;-83
2023/06/21 06:14:03;;;;;;;45.30;40.70;;;;;;;;;;5070193;28;20198;-85
2023/06/21 06:16:29;;;;;;;42.17;38.17;;;;;;;;;;5069508;28;20179;-81
2023/06/21 06:18:55;;;;;;;42.78;38.72;;;;;;;;;;5054120;28;20083;-83
2023/06/21 06:21:21;;;;;;;42.00;37.80;;;;;;;;;;5071859;28;20274;-85
2023/06/21 06:23:51;;;;;;;40.13;36.33;;;;;;;;;;5075884;28;20251;-85
2023/06/21 06:26:22;;;;;;;41.40;37.40;;;;;;;;;;5092520;28;20284;-85
2023/06/21 06:28:50;;;;;;;40.83;36.90;;;;;;;;;;5072494;28;20194;-85
2023/06/21 06:31:21;;;;;;;39.57;35.80;;;;;;;;;;5090010;28;20186;-86
2023/06/21 06:33:47;;;;;;;37.33;33.97;;;;;;;;;;5084158;28;20183;-85
2023/06/21 06:36:13;;;;;;;36.33;32.93;;;;;;;;;;5073241;28;20175;-82
2023/06/21 06:38:40;;;;;;;38.20;34.17;;;;;;;;;;5071953;28;20195;-84
2023/06/21 06:41:06;;;;;;;34.70;31.33;;;;;;;;;;5067527;28;20206;-83
2023/06/21 06:43:35;;;;;;;35.30;31.63;;;;;;;;;;5069866;28;20210;-81
2023/06/21 06:46:01;;;;;;;35.00;31.67;;;;;;;;;;5046236;28;20227;-83
2023/06/21 06:48:27;;;;;;;34.73;31.50;;;;;;;;;;5063674;28;20202;-82
2023/06/21 06:50:53;;;;;;;35.43;32.10;;;;;;;;;;5071881;28;20175;-85
2023/06/21 06:53:19;;;;;;;36.17;32.63;;;;;;;;;;5072109;28;20186;-84
2023/06/21 06:55:45;;;;;;;36.63;33.20;;;;;;;;;;5071242;28;20175;-82
2023/06/21 06:58:18;;;;;;;37.00;33.60;;;;;;;;;;5071316;28;20209;-87
2023/06/21 07:00:44;;;;;;;35.27;32.03;;;;;;;;;;5072143;28;20259;-87
2023/06/21 07:03:10;;;;;;;37.37;33.77;;;;;;;;;;5056206;28;20203;-81
2023/06/21 07:05:36;;;;;;;36.47;33.23;;;;;;;;;;5072353;28;20252;-82
2023/06/21 07:08:03;;;;;;;38.90;35.40;;;;;;;;;;5055785;28;20185;-81
2023/06/21 07:10:30;;;;;;;35.73;32.53;;;;;;;;;;5055206;28;20188;-81
2023/06/21 07:12:56;;;;;;;37.87;34.57;;;;;;;;;;5055765;28;20270;-85
2023/06/21 07:15:22;;;;;;;42.17;38.28;;;;;;;;;;5072385;28;20206;-82
2023/06/21 07:17:49;;;;;;;44.37;40.27;;;;;;;;;;5068890;28;20191;-85
2023/06/21 07:20:15;;;;;;;46.13;41.93;;;;;;;;;;5065710;28;20179;-83
2023/06/21 07:22:41;;;;;;;47.73;43.30;;;;;;;;;;5072038;28;20179;-84
2023/06/21 07:25:07;;;;;;;47.30;42.90;;;;;;;;;;5072283;28;20226;-83
2023/06/21 07:27:34;;;;;;;48.20;43.67;;;;;;;;;;5047806;28;20187;-83
2023/06/21 07:30:02;;;;;;;47.40;43.00;;;;;;;;;;5043292;28;20257;-84
2023/06/21 07:32:28;;;;;;;44.63;40.70;;;;;;;;;;5051076;28;20180;-85
2023/06/21 07:34:54;;;;;;;44.97;40.87;;;;;;;;;;5053462;28;20183;-84
2023/06/21 07:37:20;;;;;;;45.83;41.63;;;;;;;;;;5049067;28;20223;-84
2023/06/21 07:39:46;;;;;;;46.80;42.57;;;;;;;;;;5039285;28;20219;-84
2023/06/21 07:42:12;;;;;;;54.93;49.93;;;;;;;;;;5042895;28;20250;-83
2023/06/21 07:44:38;;;;;;;50.90;46.50;;;;;;;;;;5038894;28;20315;-83
2023/06/21 07:47:04;;;;;;;49.83;45.43;;;;;;;;;;5032336;28;20274;-82
2023/06/21 07:49:31;;;;;;;56.33;51.15;;;;;;;;;;5031944;28;20195;-83
2023/06/21 07:51:57;;;;;;;53.05;48.22;;;;;;;;;;5041693;28;20188;-83
2023/06/21 07:54:23;;;;;;;51.60;46.73;;;;;;;;;;5055278;28;20191;-82
2023/06/21 07:56:49;;;;;;;49.35;45.03;;;;;;;;;;5074638;28;20184;-82
2023/06/21 07:59:15;;;;;;;45.13;41.03;;;;;;;;;;5051149;28;20267;-84
2023/06/21 08:01:41;;;;;;;44.65;40.63;;;;;;;;;;5059917;28;20203;-84
2023/06/21 08:04:07;;;;;;;45.00;41.10;;;;;;;;;;5055483;28;20353;-83
2023/06/21 08:06:34;;;;;;;55.75;50.75;;;;;;;;;;5055148;28;20190;-84
2023/06/21 08:09:00;;;;;;;60.05;54.75;;;;;;;;;;5060108;28;20179;-83
2023/06/21 08:11:26;;;;;;;49.78;45.08;;;;;;;;;;5042913;28;20187;-84
2023/06/21 08:13:52;;;;;;;48.90;44.42;;;;;;;;;;5050747;28;20315;-84
2023/06/21 08:16:18;;;;;;;45.00;40.92;;;;;;;;;;5060996;28;20242;-84
2023/06/21 08:18:46;;;;;;;42.85;38.97;;;;;;;;;;5040512;28;20201;-83
2023/06/21 08:21:12;;;;;;;40.53;36.95;;;;;;;;;;5054576;28;20188;-83
2023/06/21 08:23:38;;;;;;;40.10;36.50;;;;;;;;;;5050409;28;20208;-83
2023/06/21 08:26:04;;;;;;;39.72;36.13;;;;;;;;;;5054498;28;20223;-83
2023/06/21 08:28:31;;;;;;;38.65;35.25;;;;;;;;;;5075183;28;20258;-83
2023/06/21 08:30:57;;;;;;;40.90;37.10;;;;;;;;;;5054870;28;20176;-83
2023/06/21 08:33:23;;;;;;;37.50;34.20;;;;;;;;;;5039266;28;20274;-82
2023/06/21 08:35:49;;;;;;;41.05;37.40;;;;;;;;;;5051465;28;20283;-82
2023/06/21 08:38:15;;;;;;;37.05;33.40;;;;;;;;;;5058385;28;20270;-83
2023/06/21 08:40:43;;;;;;;37.33;33.88;;;;;;;;;;5048976;28;20230;-83
2023/06/21 08:43:09;;;;;;;36.63;33.22;;;;;;;;;;5085493;28;20293;-83
2023/06/21 08:45:35;;;;;;;36.03;32.63;;;;;;;;;;5069899;28;20176;-83
2023/06/21 08:48:01;;;;;;;35.30;32.20;;;;;;;;;;5050033;28;20229;-83
2023/06/21 08:50:29;;;;;;;34.85;31.70;;;;;;;;;;5065629;28;20209;-83
2023/06/21 08:52:55;;;;;;;33.00;29.95;;;;;;;;;;5079499;28;20187;-84
2023/06/21 08:55:25;;;;;;;38.72;35.20;;;;;;;;;;5043344;28;20184;-83
2023/06/21 08:57:54;;;;;;;33.20;30.17;;;;;;;;;;5057214;28;20183;-83
2023/06/21 09:00:22;;;;;;;30.77;27.83;;;;;;;;;;5063093;28;20199;-84
2023/06/21 09:02:52;;;;;;;29.50;26.90;;;;;;;;;;5058162;28;20187;-84
2023/06/21 09:05:27;;;;;;;29.67;27.08;;;;;;;;;;5073671;28;20176;-83
2023/06/21 09:07:53;;;;;;;27.83;25.33;;;;;;;;;;5073615;28;20179;-84
2023/06/21 09:10:22;;;;;;;79.15;71.35;;;;;;;;;;5074400;28;20264;-86
2023/06/21 09:12:49;;;;;;;49.38;44.85;;;;;;;;;;5061821;28;20192;-84
2023/06/21 09:15:15;;;;;;;28.85;26.40;;;;;;;;;;5054287;28;20182;-84
2023/06/21 09:17:42;;;;;;;31.70;28.95;;;;;;;;;;5077356;28;20233;-84
2023/06/21 09:20:09;;;;;;;30.05;27.33;;;;;;;;;;5053328;28;20226;-85
2023/06/21 09:22:35;;;;;;;26.25;24.10;;;;;;;;;;5054835;28;20271;-84
2023/06/21 09:25:01;;;;;;;23.80;21.73;;;;;;;;;;5056983;28;20195;-81
2023/06/21 09:27:27;;;;;;;21.20;19.25;;;;;;;;;;5062568;28;20180;-81
2023/06/21 09:29:53;;;;;;;20.08;18.38;;;;;;;;;;5076143;28;20221;-82
2023/06/21 09:32:19;;;;;;;20.05;18.35;;;;;;;;;;5055329;28;20290;-80
2023/06/21 09:34:46;;;;;;;18.90;17.23;;;;;;;;;;5048872;28;20283;-82
2023/06/21 09:37:51;;;;;;;18.42;17.00;;;;;;;;;;5057176;28;20198;-84
2023/06/21 09:40:16;;;;;;;19.95;18.35;;;;;;;;;;5062751;28;20179;-84
2023/06/21 09:42:43;;;;;;;19.33;17.63;;;;;;;;;;5066058;28;20256;-81
2023/06/21 09:45:12;;;;;;;16.70;15.40;;;;;;;;;;5070899;28;20183;-85
2023/06/21 09:47:42;;;;;;;14.68;13.48;;;;;;;;;;5053707;28;20180;-81
2023/06/21 09:50:08;;;;;;;13.68;12.57;;;;;;;;;;5056862;28;20467;-84
2023/06/21 09:52:35;;;;;;;13.25;11.93;;;;;;;;;;5054803;28;20183;-84
2023/06/21 09:55:02;;;;;;;11.43;10.43;;;;;;;;;;5064510;28;20187;-83
2023/06/21 09:57:29;;;;;;;11.55;10.55;;;;;;;;;;5060298;28;20266;-82
2023/06/21 09:59:55;;;;;;;11.18;10.27;;;;;;;;;;5067868;28;20248;-83
2023/06/21 10:02:22;;;;;;;10.85;9.95;;;;;;;;;;5090009;28;20277;-82
2023/06/21 10:04:50;;;;;;;11.70;10.50;;;;;;;;;;5056467;28;20215;-81
2023/06/21 10:07:20;;;;;;;10.52;9.48;;;;;;;;;;5090386;28;20206;-81
2023/06/21 10:09:47;;;;;;;9.55;8.55;;;;;;;;;;5072549;28;20171;-81
2023/06/21 10:12:14;;;;;;;8.60;7.80;;;;;;;;;;5072594;28;20172;-80
2023/06/21 10:14:41;;;;;;;9.95;9.10;;;;;;;;;;5073245;28;20178;-80
2023/06/21 10:17:08;;;;;;;8.13;7.43;;;;;;;;;;5055547;28;20250;-80
2023/06/21 10:19:34;;;;;;;9.32;7.30;;;;;;;;;;5072934;28;20171;-80
2023/06/21 10:22:19;;;;;;;10.50;9.48;;;;;;;;;;5073006;28;20183;-81
2023/06/21 10:24:50;;;;;;;15.48;13.73;;;;;;;;;;5073131;28;20207;-80
2023/06/21 10:27:17;;;;;;;8.00;6.93;;;;;;;;;;5089422;28;20219;-81
2023/06/21 10:29:43;;;;;;;7.53;6.82;;;;;;;;;;5056463;28;20171;-80
2023/06/21 10:32:10;;;;;;;7.88;7.07;;;;;;;;;;5056414;28;20270;-81
2023/06/21 10:34:55;;;;;;;6.80;5.80;;;;;;;;;;5072716;28;20183;-80
2023/06/21 10:37:33;;;;;;;5.55;4.57;;;;;;;;;;5072697;28;20185;-82
2023/06/21 10:40:04;;;;;;;6.00;5.40;;;;;;;;;;5072723;28;20171;-81
2023/06/21 10:42:30;;;;;;;5.82;5.32;;;;;;;;;;5071892;28;20218;-80
2023/06/21 10:44:57;;;;;;;6.35;5.80;;;;;;;;;;5072818;28;20289;-81
2023/06/21 10:47:24;;;;;;;6.00;5.40;;;;;;;;;;5056141;28;20179;-80
2023/06/21 10:49:50;;;;;;;5.70;5.20;;;;;;;;;;5072571;28;20198;-81
2023/06/21 10:52:16;;;;;;;6.20;5.07;;;;;;;;;;5072332;28;20171;-80
2023/06/21 10:54:44;;;;;;;8.00;6.03;;;;;;;;;;5056214;28;20250;-82
2023/06/21 10:57:14;;;;;;;6.72;6.03;;;;;;;;;;5072524;28;20178;-83
2023/06/21 10:59:40;;;;;;;6.13;5.53;;;;;;;;;;5056333;28;20248;-81
2023/06/21 11:02:08;;;;;;;5.50;4.93;;;;;;;;;;5056029;28;20183;-82
2023/06/21 11:04:54;;;;;;;4.07;3.67;;;;;;;;;;5072451;28;20344;-82
2023/06/21 11:07:23;;;;;;;4.43;4.03;;;;;;;;;;5072562;28;20171;-82
2023/06/21 11:09:52;;;;;;;6.28;4.10;;;;;;;;;;5072584;28;20221;-83
2023/06/21 11:12:18;;;;;;;4.88;4.22;;;;;;;;;;5072564;28;20209;-82
2023/06/21 11:14:47;;;;;;;5.00;4.45;;;;;;;;;;5055825;28;20187;-82
2023/06/21 11:17:14;;;;;;;8.82;6.28;;;;;;;;;;5072461;28;20181;-82
2023/06/21 11:19:43;;;;;;;8.43;5.75;;;;;;;;;;5056130;28;20179;-81
2023/06/21 11:22:22;;;;;;;6.00;5.40;;;;;;;;;;5072280;28;20252;-81
2023/06/21 11:25:03;;;;;;;7.57;4.85;;;;;;;;;;5072054;28;20195;-81
2023/06/21 11:27:29;;;;;;;7.00;5.20;;;;;;;;;;5072327;28;20282;-82
2023/06/21 11:30:09;;;;;;;5.60;4.88;;;;;;;;;;5075825;28;20179;-81
2023/06/21 11:32:37;;;;;;;42.85;38.63;;;;;;;;;;5076181;28;20191;-81
2023/06/21 11:35:08;;;;;;;15.88;14.20;;;;;;;;;;5076129;28;20205;-81
2023/06/21 11:37:45;;;;;;;8.07;5.65;;;;;;;;;;5076219;28;20175;-81
2023/06/21 11:40:14;;;;;;;5.95;5.30;;;;;;;;;;5076060;28;20179;-82
2023/06/21 11:42:45;;;;;;;5.47;4.97;;;;;;;;;;5076231;28;20167;-81
2023/06/21 11:45:32;;;;;;;6.63;6.03;;;;;;;;;;5075762;28;20183;-81
2023/06/21 11:48:06;;;;;;;5.07;4.57;;;;;;;;;;5076005;28;20175;-80
2023/06/21 11:50:42;;;;;;;5.65;4.68;;;;;;;;;;5075762;28;20232;-81
2023/06/21 11:53:20;;;;;;;7.00;5.18;;;;;;;;;;5075619;28;20186;-81
2023/06/21 11:55:46;;;;;;;6.28;4.80;;;;;;;;;;5075582;28;20183;-82
2023/06/21 11:58:12;;;;;;;6.32;5.28;;;;;;;;;;5075658;28;20167;-81
2023/06/21 12:00:39;;;;;;;7.72;6.95;;;;;;;;;;5058842;28;20203;-81
2023/06/21 12:03:07;;;;;;;9.02;4.95;;;;;;;;;;5058809;28;20215;-81
2023/06/21 12:05:57;;;;;;;5.13;4.10;;;;;;;;;;5059418;28;20206;-80
2023/06/21 12:08:28;;;;;;;4.97;4.07;;;;;;;;;;5065402;28;20210;-80
2023/06/21 12:10:57;;;;;;;6.47;4.03;;;;;;;;;;5075296;28;20197;-80
2023/06/21 12:13:23;;;;;;;4.38;3.42;;;;;;;;;;5075595;28;20175;-80
2023/06/21 12:15:53;;;;;;;6.55;4.40;;;;;;;;;;5058658;28;20194;-80
2023/06/21 12:18:19;;;;;;;6.07;3.83;;;;;;;;;;5058949;28;20213;-82
2023/06/21 12:20:45;;;;;;;4.82;3.85;;;;;;;;;;5075363;28;20175;-86
2023/06/21 12:23:18;;;;;;;4.70;3.33;;;;;;;;;;5059035;28;20207;-92
2023/06/21 12:25:45;;;;;;;4.22;3.70;;;;;;;;;;5075347;28;20268;-81
2023/06/21 12:28:13;;;;;;;4.38;3.95;;;;;;;;;;5075128;28;20179;-82
2023/06/21 12:30:49;;;;;;;3.45;3.15;;;;;;;;;;5074956;28;20171;-84
2023/06/21 12:33:19;;;;;;;3.63;2.95;;;;;;;;;;5058618;28;20210;-83
2023/06/21 12:35:47;;;;;;;5.03;3.50;;;;;;;;;;5075066;28;20182;-85
2023/06/21 12:38:17;;;;;;;4.18;3.70;;;;;;;;;;5074887;28;20183;-83
2023/06/21 12:40:52;;;;;;;8.85;5.10;;;;;;;;;;5073546;28;20180;-81
2023/06/21 12:43:54;;;;;;;11.55;8.80;;;;;;;;;;5070427;28;20204;-82
2023/06/21 12:46:20;;;;;;;5.72;3.72;;;;;;;;;;4994583;28;20181;-81
2023/06/21 12:48:51;;;;;;;4.95;4.00;;;;;;;;;;5039132;28;20271;-81
2023/06/21 12:51:21;;;;;;;6.25;3.90;;;;;;;;;;5054762;28;20168;-82
2023/06/21 12:53:47;;;;;;;5.57;3.63;;;;;;;;;;5055010;28;20200;-82
2023/06/21 12:56:14;;;;;;;5.13;3.75;;;;;;;;;;5054653;28;20243;-81
2023/06/21 12:58:40;;;;;;;4.30;3.90;;;;;;;;;;5054400;28;20214;-82
2023/06/21 13:01:07;;;;;;;4.03;3.63;;;;;;;;;;5054526;28;20200;-81
2023/06/21 13:03:33;;;;;;;4.25;3.85;;;;;;;;;;5054252;28;20203;-82
2023/06/21 13:05:59;;;;;;;3.88;3.58;;;;;;;;;;5054692;28;20189;-81
2023/06/21 13:08:26;;;;;;;4.30;3.45;;;;;;;;;;5054276;28;20172;-81
2023/06/21 13:10:56;;;;;;;6.03;3.10;;;;;;;;;;5054561;28;20202;-81
2023/06/21 13:13:22;;;;;;;4.35;3.30;;;;;;;;;;5054170;28;20175;-80
2023/06/21 13:15:49;;;;;;;6.32;3.50;;;;;;;;;;5054266;28;20172;-81
2023/06/21 13:18:18;;;;;;;5.80;3.78;;;;;;;;;;5054202;28;20176;-81
2023/06/21 13:20:44;;;;;;;4.32;3.00;;;;;;;;;;5055197;28;20164;-81
2023/06/21 13:23:10;;;;;;;4.35;3.00;;;;;;;;;;5054438;28;20212;-81
2023/06/21 13:25:36;;;;;;;10.38;3.47;;;;;;;;;;5053964;28;20374;-81
2023/06/21 13:28:02;;;;;;;4.45;3.42;;;;;;;;;;5053997;28;20176;-80
2023/06/21 13:30:28;;;;;;;4.10;3.08;;;;;;;;;;5053747;28;20207;-80
2023/06/21 13:32:54;;;;;;;4.45;3.40;;;;;;;;;;5056337;28;20180;-79
2023/06/21 13:35:20;;;;;;;3.90;3.47;;;;;;;;;;5072685;28;20175;-79
2023/06/21 13:37:46;;;;;;;4.78;3.80;;;;;;;;;;5056107;28;20262;-80
2023/06/21 13:40:12;;;;;;;3.75;2.90;;;;;;;;;;5056566;28;20210;-82
2023/06/21 13:42:38;;;;;;;3.83;3.38;;;;;;;;;;5057049;28;20175;-83
2023/06/21 13:45:07;;;;;;;5.15;3.00;;;;;;;;;;5073499;28;20229;-82
2023/06/21 13:47:33;;;;;;;4.75;3.55;;;;;;;;;;5056883;28;20180;-82
2023/06/21 13:50:01;;;;;;;6.20;3.10;;;;;;;;;;5073617;28;20210;-82
2023/06/21 13:52:31;;;;;;;4.82;3.20;;;;;;;;;;5073156;28;20178;-83
2023/06/21 13:54:57;;;;;;;3.92;2.60;;;;;;;;;;5073472;28;20182;-83
2023/06/21 13:57:24;;;;;;;5.70;5.13;;;;;;;;;;5073426;28;20179;-82
2023/06/21 13:59:50;;;;;;;6.97;5.72;;;;;;;;;;5056668;28;20179;-82
2023/06/21 14:02:16;;;;;;;5.47;2.90;;;;;;;;;;5073559;28;20171;-83
2023/06/21 14:04:43;;;;;;;5.18;3.00;;;;;;;;;;5073285;28;20241;-82
2023/06/21 14:07:10;;;;;;;5.60;2.83;;;;;;;;;;5073417;28;20217;-83
2023/06/21 14:09:38;;;;;;;3.20;2.40;;;;;;;;;;5073115;28;20175;-82
2023/06/21 14:12:04;;;;;;;6.07;2.58;;;;;;;;;;5056758;28;20175;-84
2023/06/21 14:14:30;;;;;;;3.80;2.30;;;;;;;;;;5073041;28;20179;-82
2023/06/21 14:16:56;;;;;;;2.55;2.35;;;;;;;;;;5052333;28;20196;-83
2023/06/21 14:19:22;;;;;;;8.23;2.55;;;;;;;;;;5042238;28;20192;-83
2023/06/21 14:21:48;;;;;;;3.45;2.30;;;;;;;;;;5052651;28;20188;-84
2023/06/21 14:24:14;;;;;;;3.72;2.28;;;;;;;;;;5053134;28;20219;-80
2023/06/21 14:26:40;;;;;;;3.88;2.50;;;;;;;;;;5054703;28;20255;-80